Time;durP1;ratioP1;P1;durP2;ratioP2;P2;SDS_P1;SDS_P2;PMS_P1;PMS_P2;Temp;Humidity;BMP_temperature;BMP_pressure;BME280_temperature;BME280_humidity;BME280_pressure;Samples;Min_cycle;Max_cycle;Signal;HPM_P1;HPM_P2
2021/04/09 00:04:37;;;;;;;8.80;8.00;;;4.50;67.60;;;;;;10485060;28;20246;-77
2021/04/09 00:09:39;;;;;;;8.50;7.00;;;4.50;68.00;;;;;;10480544;28;20256;-79
2021/04/09 00:14:40;;;;;;;8.40;7.70;;;4.50;67.60;;;;;;10480006;28;20285;-77
2021/04/09 00:19:43;;;;;;;10.57;7.73;;;4.40;67.80;;;;;;10498607;28;20236;-78
2021/04/09 00:24:44;;;;;;;9.33;7.50;;;4.40;67.90;;;;;;10479955;28;20192;-77
2021/04/09 00:29:46;;;;;;;7.80;7.10;;;4.40;69.20;;;;;;10484598;28;20257;-77
2021/04/09 00:34:48;;;;;;;9.60;7.90;;;4.30;68.20;;;;;;10505561;28;20235;-78
2021/04/09 00:39:50;;;;;;;8.40;7.50;;;4.30;68.80;;;;;;10502118;28;20212;-78
2021/04/09 00:44:56;;;;;;;9.43;7.60;;;4.30;68.70;;;;;;10500892;28;20201;-79
2021/04/09 00:49:59;;;;;;;10.00;7.97;;;4.30;68.80;;;;;;10504333;28;20220;-78
2021/04/09 00:55:01;;;;;;;11.17;8.87;;;4.20;68.80;;;;;;10499935;28;20741;-79
2021/04/09 01:00:05;;;;;;;10.60;9.50;;;4.10;69.50;;;;;;10459332;28;20957;-77
2021/04/09 01:05:10;;;;;;;10.43;8.20;;;4.10;69.40;;;;;;10476954;28;20216;-78
2021/04/09 01:10:13;;;;;;;8.23;7.30;;;4.00;69.70;;;;;;10478327;28;20212;-77
2021/04/09 01:15:17;;;;;;;8.83;8.00;;;3.90;70.20;;;;;;10495965;28;20226;-78
2021/04/09 01:20:56;;;;;;;8.23;7.37;;;3.90;70.70;;;;;;10478375;28;20726;-78
2021/04/09 01:26:29;;;;;;;9.30;7.80;;;3.90;70.70;;;;;;10462538;28;20215;-78
2021/04/09 01:31:42;;;;;;;8.10;7.20;;;3.90;70.50;;;;;;10495633;28;20197;-76
2021/04/09 01:36:48;;;;;;;8.20;6.77;;;3.90;70.80;;;;;;10476633;28;20284;-79
2021/04/09 01:41:52;;;;;;;9.27;8.27;;;3.90;71.10;;;;;;10510126;28;20197;-79
2021/04/09 01:46:57;;;;;;;9.50;7.77;;;3.90;71.00;;;;;;10503552;28;20218;-78
2021/04/09 01:52:00;;;;;;;8.80;7.90;;;3.90;71.10;;;;;;10485725;28;20668;-77
2021/04/09 01:57:03;;;;;;;7.67;6.93;;;3.90;71.20;;;;;;10484913;28;20315;-78
2021/04/09 02:02:06;;;;;;;10.30;7.20;;;3.90;71.20;;;;;;10502939;28;20212;-78
2021/04/09 02:07:09;;;;;;;8.17;7.37;;;3.90;71.80;;;;;;10501963;28;20313;-78
2021/04/09 02:12:12;;;;;;;7.63;7.00;;;3.80;71.90;;;;;;10502390;28;20199;-77
2021/04/09 02:17:15;;;;;;;7.67;6.73;;;3.80;71.50;;;;;;10497290;28;20244;-78
2021/04/09 02:22:18;;;;;;;7.13;6.60;;;3.80;71.90;;;;;;10483886;28;20604;-78
2021/04/09 02:27:20;;;;;;;7.30;6.60;;;3.90;71.40;;;;;;10502111;28;20212;-77
2021/04/09 02:32:23;;;;;;;7.87;7.07;;;3.90;71.40;;;;;;10501699;28;20319;-78
2021/04/09 02:37:25;;;;;;;6.90;6.20;;;3.90;71.80;;;;;;10482297;28;20228;-78
2021/04/09 02:42:27;;;;;;;7.40;6.70;;;3.90;71.80;;;;;;10483731;28;20200;-78
2021/04/09 02:47:31;;;;;;;10.10;6.60;;;3.90;71.80;;;;;;10482194;28;20224;-78
2021/04/09 02:52:43;;;;;;;7.37;6.20;;;3.90;71.50;;;;;;10501478;28;20608;-78
2021/04/09 02:57:48;;;;;;;7.00;6.30;;;4.00;71.00;;;;;;10485046;28;20216;-78
2021/04/09 03:02:51;;;;;;;7.80;7.10;;;3.90;71.00;;;;;;10505116;28;20383;-80
2021/04/09 03:07:53;;;;;;;6.60;5.87;;;3.90;71.10;;;;;;10479723;28;20209;-79
2021/04/09 03:12:55;;;;;;;7.50;6.70;;;3.90;70.90;;;;;;10494823;28;20284;-79
2021/04/09 03:18:02;;;;;;;7.33;6.20;;;3.90;70.80;;;;;;10482279;28;20637;-79
2021/04/09 03:23:04;;;;;;;7.23;6.03;;;3.90;71.00;;;;;;10502316;28;20212;-80
2021/04/09 03:28:10;;;;;;;6.73;6.10;;;3.90;70.90;;;;;;10488373;28;20213;-79
2021/04/09 03:33:12;;;;;;;6.63;6.00;;;3.80;71.30;;;;;;10501498;28;20246;-79
2021/04/09 03:38:14;;;;;;;6.97;6.30;;;3.80;71.30;;;;;;10481689;28;20296;-79
2021/04/09 03:43:16;;;;;;;6.50;5.90;;;3.80;72.00;;;;;;10499391;28;20243;-79
2021/04/09 03:48:19;;;;;;;6.40;5.90;;;3.70;72.30;;;;;;10482241;28;20274;-79
2021/04/09 03:53:21;;;;;;;7.07;6.47;;;3.80;72.00;;;;;;10481385;28;20283;-79
2021/04/09 03:58:22;;;;;;;6.73;6.07;;;3.70;72.00;;;;;;10496978;28;20252;-79
2021/04/09 04:03:25;;;;;;;7.03;6.17;;;3.70;72.60;;;;;;10476007;28;20287;-78
2021/04/09 04:08:26;;;;;;;6.63;6.07;;;3.70;72.30;;;;;;10495296;28;20243;-79
2021/04/09 04:13:28;;;;;;;6.80;6.10;;;3.80;72.20;;;;;;10497620;28;20200;-79
2021/04/09 04:18:30;;;;;;;6.10;5.60;;;3.80;71.80;;;;;;10479847;28;20221;-79
2021/04/09 04:23:32;;;;;;;6.37;5.70;;;3.80;72.30;;;;;;10498872;28;20195;-79
2021/04/09 04:28:34;;;;;;;6.70;5.53;;;3.80;72.60;;;;;;10480015;28;20204;-80
2021/04/09 04:33:36;;;;;;;5.87;5.27;;;3.70;72.80;;;;;;10479880;28;20200;-78
2021/04/09 04:38:38;;;;;;;7.07;6.37;;;3.80;72.70;;;;;;10496450;28;20213;-79
2021/04/09 04:43:40;;;;;;;6.87;6.20;;;3.90;71.80;;;;;;10475007;28;20220;-79
2021/04/09 04:48:42;;;;;;;7.40;5.70;;;3.90;72.00;;;;;;10479356;28;20273;-79
2021/04/09 04:53:44;;;;;;;6.20;5.60;;;4.00;71.60;;;;;;10498467;28;20223;-79
2021/04/09 04:58:46;;;;;;;6.90;6.17;;;4.00;71.00;;;;;;10519507;28;20277;-79
2021/04/09 05:03:48;;;;;;;6.80;6.13;;;4.00;71.60;;;;;;10457266;28;20192;-78
2021/04/09 05:08:50;;;;;;;8.10;6.47;;;4.10;72.00;;;;;;10495482;28;20235;-79
2021/04/09 05:13:51;;;;;;;6.67;6.07;;;4.30;71.50;;;;;;10494987;28;20195;-79
2021/04/09 05:18:54;;;;;;;7.17;6.47;;;4.40;71.30;;;;;;10499789;28;20600;-79
2021/04/09 05:23:56;;;;;;;10.60;8.30;;;4.50;70.90;;;;;;10486375;28;20269;-79
2021/04/09 05:28:57;;;;;;;7.13;6.43;;;4.60;70.40;;;;;;10491043;28;20224;-79
2021/04/09 05:34:00;;;;;;;7.70;7.00;;;4.60;70.30;;;;;;10480632;28;20196;-79
2021/04/09 05:39:02;;;;;;;9.50;7.10;;;4.70;70.60;;;;;;10490649;28;20224;-79
2021/04/09 05:44:04;;;;;;;9.27;6.63;;;4.90;70.50;;;;;;10508770;28;20302;-79
2021/04/09 05:49:07;;;;;;;8.87;7.60;;;5.00;69.70;;;;;;10490912;28;20306;-78
2021/04/09 05:54:09;;;;;;;7.80;7.10;;;5.20;69.60;;;;;;10508975;28;20201;-79
2021/04/09 05:59:11;;;;;;;11.63;7.80;;;5.20;69.50;;;;;;10509094;28;20225;-79
2021/04/09 06:04:13;;;;;;;8.57;7.03;;;5.30;69.40;;;;;;10474643;28;20200;-79
2021/04/09 06:09:15;;;;;;;8.80;6.80;;;5.30;69.50;;;;;;10491085;28;20291;-79
2021/04/09 06:14:17;;;;;;;9.80;8.63;;;5.40;70.00;;;;;;10509864;28;20192;-80
2021/04/09 06:19:19;;;;;;;10.27;8.13;;;5.50;70.70;;;;;;10491824;28;20712;-79
2021/04/09 06:24:21;;;;;;;10.40;8.00;;;5.60;70.00;;;;;;10513205;28;20196;-79
2021/04/09 06:29:22;;;;;;;10.40;7.80;;;5.80;69.70;;;;;;10507220;28;20232;-79
2021/04/09 06:34:25;;;;;;;9.33;7.87;;;6.00;69.00;;;;;;10501880;28;20253;-78
2021/04/09 06:39:26;;;;;;;10.33;8.33;;;6.30;69.20;;;;;;10500830;28;20244;-79
2021/04/09 06:44:29;;;;;;;9.47;8.03;;;6.50;68.80;;;;;;10501166;28;20188;-78
2021/04/09 06:49:32;;;;;;;11.50;7.10;;;6.70;69.10;;;;;;10490218;28;20324;-78
2021/04/09 06:54:34;;;;;;;9.07;8.03;;;6.80;68.30;;;;;;10497682;28;20232;-78
2021/04/09 06:59:39;;;;;;;11.83;8.07;;;7.00;67.90;;;;;;10524167;28;20251;-78
2021/04/09 07:04:42;;;;;;;9.20;6.70;;;7.20;66.80;;;;;;10522330;28;20229;-79
2021/04/09 07:09:45;;;;;;;8.30;7.10;;;7.40;65.60;;;;;;10515821;28;20312;-78
2021/04/09 07:14:48;;;;;;;7.17;6.47;;;7.60;64.60;;;;;;10521247;28;20733;-79
2021/04/09 07:19:51;;;;;;;6.13;5.07;;;7.80;63.80;;;;;;10519045;28;20213;-78
2021/04/09 07:25:03;;;;;;;5.93;5.33;;;8.00;63.50;;;;;;10519545;28;20240;-79
2021/04/09 07:30:07;;;;;;;5.13;4.63;;;8.20;61.80;;;;;;10480710;28;20235;-80
2021/04/09 07:35:13;;;;;;;6.30;4.97;;;8.50;59.50;;;;;;10520796;28;20254;-79
2021/04/09 07:40:17;;;;;;;5.37;4.73;;;8.80;59.40;;;;;;10519777;28;20220;-78
2021/04/09 07:45:21;;;;;;;4.73;4.33;;;9.10;58.80;;;;;;10514413;28;20197;-79
2021/04/09 07:50:38;;;;;;;5.03;4.63;;;9.30;59.20;;;;;;10503325;28;20225;-79
2021/04/09 07:55:39;;;;;;;3.83;3.53;;;9.50;57.60;;;;;;10481797;28;20219;-77
2021/04/09 08:00:41;;;;;;;5.23;4.73;;;9.80;55.00;;;;;;10495500;28;20387;-79
2021/04/09 08:05:44;;;;;;;4.70;4.17;;;10.00;54.40;;;;;;10480256;28;20228;-78
2021/04/09 08:10:46;;;;;;;5.87;4.53;;;10.20;53.30;;;;;;10498378;28;20637;-78
2021/04/09 08:15:47;;;;;;;4.83;4.43;;;10.50;53.70;;;;;;10496452;28;20247;-79
2021/04/09 08:20:50;;;;;;;5.47;4.47;;;10.90;53.60;;;;;;10498318;28;20193;-79
2021/04/09 08:25:54;;;;;;;5.20;4.57;;;11.10;52.40;;;;;;10497232;28;20189;-79
2021/04/09 08:30:55;;;;;;;4.63;4.20;;;11.30;52.50;;;;;;10502836;28;20660;-78
2021/04/09 08:35:58;;;;;;;3.87;3.40;;;11.50;50.60;;;;;;10497046;28;20332;-78
2021/04/09 08:41:01;;;;;;;4.23;3.83;;;11.70;50.40;;;;;;10503950;28;20220;-79
2021/04/09 08:51:06;;;;;;;4.63;4.23;;;11.90;49.80;;;;;;10416479;28;20206;-80
2021/04/09 08:56:11;;;;;;;4.90;4.50;;;12.00;48.80;;;;;;10399814;28;20214;-80
2021/04/09 09:01:15;;;;;;;5.03;3.90;;;12.10;50.40;;;;;;10376541;28;20244;-80
2021/04/09 09:06:17;;;;;;;4.67;4.37;;;12.10;50.70;;;;;;10405359;28;20250;-81
2021/04/09 09:11:50;;;;;;;4.80;4.03;;;12.30;50.00;;;;;;10420164;28;20194;-81
2021/04/09 09:16:52;;;;;;;5.13;4.53;;;12.40;49.40;;;;;;10418515;28;20226;-81
2021/04/09 09:22:11;;;;;;;4.00;3.70;;;12.60;48.30;;;;;;10411938;28;20190;-81
2021/04/09 09:27:13;;;;;;;3.67;3.37;;;12.80;46.90;;;;;;10396966;28;20236;-81
2021/04/09 09:32:15;;;;;;;4.03;3.73;;;12.90;47.10;;;;;;10362521;28;20240;-81
2021/04/09 09:37:20;;;;;;;3.63;3.33;;;13.00;46.80;;;;;;10402034;28;20222;-81
2021/04/09 09:42:41;;;;;;;4.03;3.73;;;13.10;46.10;;;;;;10403069;28;20194;-81
2021/04/09 09:47:44;;;;;;;4.13;3.30;;;13.30;46.60;;;;;;10436275;28;20224;-81
2021/04/09 09:52:49;;;;;;;4.00;3.60;;;13.40;45.80;;;;;;10443496;28;20711;-81
2021/04/09 09:57:52;;;;;;;3.63;3.33;;;13.50;45.90;;;;;;10455310;28;20217;-81
2021/04/09 10:03:16;;;;;;;3.93;3.53;;;13.50;43.70;;;;;;10468296;28;20284;-81
2021/04/09 10:08:19;;;;;;;3.40;3.00;;;13.60;44.20;;;;;;10493704;28;20707;-81
2021/04/09 10:13:25;;;;;;;3.80;3.30;;;13.70;45.40;;;;;;10460744;28;20634;-81
2021/04/09 10:18:27;;;;;;;3.70;3.50;;;13.80;43.80;;;;;;10439065;28;20232;-81
2021/04/09 10:23:31;;;;;;;3.83;3.53;;;13.80;42.10;;;;;;10454047;28;20201;-80
2021/04/09 10:28:33;;;;;;;3.67;3.37;;;13.90;43.90;;;;;;10447943;28;20217;-81
2021/04/09 10:33:39;;;;;;;4.70;3.90;;;14.10;42.70;;;;;;10464457;28;20201;-81
2021/04/09 10:38:42;;;;;;;3.60;3.30;;;14.20;43.00;;;;;;10451974;28;20217;-81
2021/04/09 10:43:43;;;;;;;3.50;3.20;;;14.30;42.60;;;;;;10440196;28;20197;-81
2021/04/09 10:48:45;;;;;;;4.23;3.83;;;14.30;44.50;;;;;;10451808;28;20751;-81
2021/04/09 10:53:54;;;;;;;3.73;3.43;;;14.40;45.10;;;;;;10469848;28;20203;-81
2021/04/09 10:58:55;;;;;;;3.53;3.00;;;14.40;45.00;;;;;;10475340;28;20304;-81
2021/04/09 11:03:59;;;;;;;4.90;4.07;;;14.40;44.90;;;;;;10455841;28;20197;-81
2021/04/09 11:09:05;;;;;;;4.60;3.73;;;14.40;42.80;;;;;;10479202;28;20619;-81
2021/04/09 11:14:09;;;;;;;3.80;3.50;;;14.40;43.90;;;;;;10444619;28;20201;-81
2021/04/09 11:19:21;;;;;;;4.30;3.87;;;14.40;43.90;;;;;;10444558;28;20217;-81
2021/04/09 11:24:27;;;;;;;3.30;3.00;;;14.40;44.00;;;;;;10459540;28;20193;-81
2021/04/09 11:29:30;;;;;;;2.97;2.67;;;14.40;42.60;;;;;;10458989;28;20213;-81
2021/04/09 11:34:35;;;;;;;4.37;3.97;;;14.50;42.80;;;;;;10441217;28;20197;-81
2021/04/09 11:39:49;;;;;;;3.43;3.10;;;14.50;42.60;;;;;;10463513;28;20283;-81
2021/04/09 11:44:51;;;;;;;3.13;2.93;;;14.50;42.60;;;;;;10456821;28;20193;-81
2021/04/09 11:50:09;;;;;;;3.47;3.20;;;14.60;43.80;;;;;;10420821;28;20230;-80
2021/04/09 11:55:14;;;;;;;3.70;3.40;;;14.70;43.20;;;;;;10394052;28;20245;-81
2021/04/09 12:00:23;;;;;;;3.73;3.43;;;14.80;43.40;;;;;;10378279;28;20213;-81
2021/04/09 12:05:26;;;;;;;2.83;2.63;;;14.90;41.90;;;;;;10375845;28;20186;-81
2021/04/09 12:10:31;;;;;;;3.50;3.20;;;15.00;40.20;;;;;;10376645;28;20215;-80
2021/04/09 12:15:33;;;;;;;3.37;2.40;;;15.00;41.20;;;;;;10377777;28;20297;-81
2021/04/09 12:20:34;;;;;;;3.67;3.37;;;15.10;41.10;;;;;;10382069;28;20573;-81
2021/04/09 12:25:37;;;;;;;3.30;3.10;;;15.30;43.30;;;;;;10360889;28;20195;-81
2021/04/09 12:30:39;;;;;;;2.97;2.77;;;15.40;41.20;;;;;;10379969;28;20210;-81
2021/04/09 12:35:40;;;;;;;3.40;3.10;;;15.60;41.80;;;;;;10379010;28;20213;-81
2021/04/09 12:40:43;;;;;;;2.80;2.60;;;15.70;40.30;;;;;;10377741;28;20689;-81
2021/04/09 12:45:44;;;;;;;3.00;2.70;;;15.70;40.40;;;;;;10379857;28;20214;-81
2021/04/09 12:50:46;;;;;;;4.67;2.60;;;15.80;41.90;;;;;;10439189;28;20227;-81
2021/04/09 12:55:49;;;;;;;2.80;2.60;;;15.90;42.60;;;;;;10460694;28;20745;-81
2021/04/09 13:00:50;;;;;;;2.50;2.30;;;15.80;40.10;;;;;;10460387;28;20209;-81
2021/04/09 13:05:52;;;;;;;3.80;2.70;;;15.60;40.50;;;;;;10459273;28;20280;-81
2021/04/09 13:10:54;;;;;;;4.50;2.57;;;15.50;42.60;;;;;;10463388;28;20244;-81
2021/04/09 13:15:56;;;;;;;2.60;2.40;;;15.50;40.00;;;;;;10458883;28;20270;-81
2021/04/09 13:21:00;;;;;;;3.03;2.80;;;15.50;41.60;;;;;;10460106;28;20668;-81
2021/04/09 13:26:03;;;;;;;2.80;2.60;;;15.30;41.40;;;;;;10458972;28;20197;-81
2021/04/09 13:31:04;;;;;;;2.90;2.60;;;15.30;40.60;;;;;;10441655;28;20208;-81
2021/04/09 13:36:08;;;;;;;4.07;3.23;;;15.30;43.00;;;;;;10461598;28;20209;-81
2021/04/09 13:41:12;;;;;;;2.90;2.70;;;15.40;42.40;;;;;;10467560;28;20242;-81
2021/04/09 13:46:14;;;;;;;2.87;2.50;;;15.50;43.40;;;;;;10447943;28;20240;-81
2021/04/09 13:51:16;;;;;;;2.37;2.27;;;15.60;42.50;;;;;;10464768;28;20276;-81
2021/04/09 13:56:19;;;;;;;2.73;2.30;;;15.70;42.10;;;;;;10468315;28;20229;-81
2021/04/09 14:01:20;;;;;;;7.80;3.20;;;15.80;40.70;;;;;;10466668;28;20546;-81
2021/04/09 14:06:22;;;;;;;2.10;2.00;;;15.90;42.60;;;;;;10466558;28;20297;-81
2021/04/09 14:11:24;;;;;;;3.10;2.50;;;16.00;39.90;;;;;;10462894;28;20652;-81
2021/04/09 14:16:26;;;;;;;1.90;1.80;;;15.90;37.90;;;;;;10464462;28;20304;-81
2021/04/09 14:21:28;;;;;;;2.30;2.10;;;16.00;37.60;;;;;;10463387;28;20535;-81
2021/04/09 14:26:30;;;;;;;4.70;3.03;;;16.00;38.20;;;;;;10462631;28;20283;-81
2021/04/09 14:31:32;;;;;;;2.37;2.17;;;16.00;37.50;;;;;;10465800;28;20197;-81
2021/04/09 14:36:34;;;;;;;3.43;2.43;;;15.90;39.10;;;;;;10463072;28;20753;-81
2021/04/09 14:41:36;;;;;;;2.70;2.50;;;15.70;42.00;;;;;;10464538;28;20573;-81
2021/04/09 14:46:38;;;;;;;2.40;2.10;;;15.60;43.50;;;;;;10465849;28;20220;-81
2021/04/09 14:51:40;;;;;;;2.57;2.10;;;15.60;43.00;;;;;;10464958;28;20185;-81
2021/04/09 14:56:42;;;;;;;2.23;2.13;;;15.60;40.00;;;;;;10465331;28;20209;-81
2021/04/09 15:01:44;;;;;;;3.60;2.30;;;15.50;39.50;;;;;;10479453;28;20197;-81
2021/04/09 15:06:46;;;;;;;3.73;2.10;;;15.60;38.00;;;;;;10478733;28;20209;-81
2021/04/09 15:11:48;;;;;;;3.50;1.97;;;15.80;36.90;;;;;;10464578;28;20200;-82
2021/04/09 15:16:50;;;;;;;2.40;2.20;;;16.00;38.10;;;;;;10464123;28;20704;-81
2021/04/09 15:21:51;;;;;;;2.67;2.00;;;15.90;37.90;;;;;;10464293;28;20248;-81
2021/04/09 15:26:54;;;;;;;2.87;2.27;;;15.90;38.10;;;;;;10464048;28;20274;-81
2021/04/09 15:31:55;;;;;;;2.27;2.07;;;15.90;36.90;;;;;;10461467;28;20566;-81
2021/04/09 15:36:57;;;;;;;2.50;2.30;;;15.90;37.00;;;;;;10462098;28;20232;-81
2021/04/09 15:42:00;;;;;;;3.40;3.10;;;15.90;37.50;;;;;;10462640;28;20610;-82
2021/04/09 15:47:02;;;;;;;2.47;2.27;;;15.70;38.90;;;;;;10460526;28;20289;-82
2021/04/09 15:52:04;;;;;;;2.90;2.47;;;15.50;38.30;;;;;;10462857;28;20243;-81
2021/04/09 15:57:07;;;;;;;2.50;2.30;;;15.50;38.30;;;;;;10461249;28;20259;-81
2021/04/09 16:02:09;;;;;;;2.87;2.13;;;15.40;39.00;;;;;;10464365;28;20189;-82
2021/04/09 16:07:10;;;;;;;3.23;2.30;;;15.20;39.30;;;;;;10467001;28;20201;-82
2021/04/09 16:12:13;;;;;;;2.30;2.10;;;15.10;40.30;;;;;;10471797;28;20192;-82
2021/04/09 16:17:15;;;;;;;2.10;1.90;;;15.00;39.90;;;;;;10465656;28;20561;-82
2021/04/09 16:22:17;;;;;;;2.83;2.63;;;15.00;41.90;;;;;;10461269;28;20224;-81
2021/04/09 16:27:19;;;;;;;9.13;4.93;;;14.90;40.80;;;;;;10457912;28;20244;-82
2021/04/09 16:32:21;;;;;;;4.27;3.93;;;14.90;42.20;;;;;;10462948;28;20200;-81
2021/04/09 16:37:23;;;;;;;2.33;1.97;;;14.90;43.20;;;;;;10460917;28;20280;-81
2021/04/09 16:42:25;;;;;;;5.43;2.30;;;14.80;43.80;;;;;;10450764;28;20736;-81
2021/04/09 16:47:30;;;;;;;2.63;2.43;;;14.80;44.10;;;;;;10448659;28;20599;-80
2021/04/09 16:52:32;;;;;;;2.97;2.30;;;14.70;45.30;;;;;;10455686;28;20238;-81
2021/04/09 16:57:34;;;;;;;2.77;2.57;;;14.60;47.00;;;;;;10423319;28;20252;-80
2021/04/09 17:02:37;;;;;;;3.17;2.37;;;14.50;45.20;;;;;;10457033;28;20586;-80
2021/04/09 17:07:38;;;;;;;3.33;3.03;;;14.40;47.60;;;;;;10454375;28;20213;-80
2021/04/09 17:12:42;;;;;;;3.80;2.80;;;14.20;48.60;;;;;;10455421;28;20588;-80
2021/04/09 17:17:44;;;;;;;3.20;2.90;;;14.10;46.30;;;;;;10457856;28;20229;-81
2021/04/09 17:22:46;;;;;;;2.37;2.17;;;14.00;48.30;;;;;;10458906;28;20242;-80
2021/04/09 17:27:49;;;;;;;3.87;2.90;;;14.10;47.30;;;;;;10457752;28;20281;-80
2021/04/09 17:32:51;;;;;;;3.33;2.70;;;14.10;48.20;;;;;;10460831;28;20197;-80
2021/04/09 17:37:53;;;;;;;5.50;2.53;;;14.20;48.50;;;;;;10433595;28;20312;-80
2021/04/09 17:42:55;;;;;;;6.13;3.70;;;14.20;49.30;;;;;;10439759;28;20224;-80
2021/04/09 17:47:57;;;;;;;3.07;2.80;;;14.20;49.10;;;;;;10447203;28;20598;-80
2021/04/09 17:52:59;;;;;;;3.80;3.43;;;14.20;49.60;;;;;;10460313;28;20186;-79
2021/04/09 17:58:01;;;;;;;4.00;3.17;;;14.10;49.80;;;;;;10458857;28;20697;-80
2021/04/09 18:03:03;;;;;;;3.13;2.80;;;14.00;49.40;;;;;;10463424;28;20335;-80
2021/04/09 18:08:06;;;;;;;3.27;2.57;;;13.90;50.30;;;;;;10457811;28;20216;-77
2021/04/09 18:13:08;;;;;;;3.03;2.83;;;13.80;49.80;;;;;;10456611;28;20193;-77
2021/04/09 18:18:10;;;;;;;4.40;4.00;;;13.70;50.90;;;;;;10456472;28;20214;-78
2021/04/09 18:23:12;;;;;;;8.70;6.40;;;13.60;49.60;;;;;;10461685;28;20299;-78
2021/04/09 18:28:15;;;;;;;6.70;6.10;;;13.60;49.60;;;;;;10445146;28;20217;-77
2021/04/09 18:33:16;;;;;;;8.07;6.73;;;13.60;50.50;;;;;;10461052;28;20606;-78
2021/04/09 18:38:18;;;;;;;6.17;5.57;;;13.60;51.10;;;;;;10463242;28;20221;-78
2021/04/09 18:43:21;;;;;;;4.90;4.50;;;13.60;51.20;;;;;;10464677;28;20247;-78
2021/04/09 18:48:22;;;;;;;6.13;4.40;;;13.60;51.50;;;;;;10486485;28;20216;-78
2021/04/09 18:53:24;;;;;;;7.77;4.20;;;13.50;52.30;;;;;;10454243;28;20200;-78
2021/04/09 18:58:26;;;;;;;4.20;3.80;;;13.50;52.10;;;;;;10462742;28;20245;-77
2021/04/09 19:03:28;;;;;;;9.50;3.40;;;13.40;52.50;;;;;;10457645;28;20610;-77
2021/04/09 19:08:30;;;;;;;3.40;3.07;;;13.40;51.90;;;;;;10463448;28;20224;-76
2021/04/09 19:13:33;;;;;;;3.10;2.90;;;13.30;52.00;;;;;;10482231;28;20215;-78
2021/04/09 19:18:35;;;;;;;3.80;3.00;;;13.30;52.00;;;;;;10465886;28;20847;-77
2021/04/09 19:23:36;;;;;;;3.90;3.30;;;13.30;52.50;;;;;;10463715;28;20292;-78
2021/04/09 19:28:39;;;;;;;3.80;3.30;;;13.20;52.70;;;;;;10442368;28;20826;-78
2021/04/09 19:33:41;;;;;;;2.80;2.60;;;13.20;52.60;;;;;;10460592;28;20247;-78
2021/04/09 19:38:42;;;;;;;3.43;2.77;;;13.20;52.80;;;;;;10460129;28;20217;-78
2021/04/09 19:43:45;;;;;;;3.37;2.97;;;13.10;53.00;;;;;;10461275;28;20544;-78
2021/04/09 19:48:46;;;;;;;3.13;2.90;;;13.10;53.10;;;;;;10443962;28;20287;-78
2021/04/09 19:53:49;;;;;;;3.30;3.00;;;13.10;53.90;;;;;;10459338;28;20280;-77
2021/04/09 19:58:51;;;;;;;4.43;3.20;;;13.00;54.00;;;;;;10438294;28;20225;-77
2021/04/09 20:03:53;;;;;;;6.40;4.17;;;13.00;54.20;;;;;;10440125;28;20197;-78
2021/04/09 20:08:55;;;;;;;5.33;4.17;;;13.10;54.50;;;;;;10438529;28;20704;-78
2021/04/09 20:13:57;;;;;;;4.27;3.87;;;13.00;54.30;;;;;;10457767;28;20287;-77
2021/04/09 20:18:59;;;;;;;3.60;3.30;;;13.00;54.00;;;;;;10454521;28;20295;-77
2021/04/09 20:24:01;;;;;;;7.80;4.87;;;13.00;54.00;;;;;;10455429;28;20246;-77
2021/04/09 20:29:03;;;;;;;6.00;4.40;;;13.00;54.20;;;;;;10458467;28;20259;-78
2021/04/09 20:34:05;;;;;;;5.87;4.60;;;13.00;54.60;;;;;;10456960;28;20201;-81
2021/04/09 20:39:07;;;;;;;3.33;3.13;;;13.00;53.90;;;;;;10438042;28;20221;-81
2021/04/09 20:44:09;;;;;;;4.77;3.80;;;13.00;54.00;;;;;;10460741;28;20221;-81
2021/04/09 20:49:11;;;;;;;3.77;3.47;;;13.00;53.80;;;;;;10479467;22;20312;-77
2021/04/09 20:54:13;;;;;;;5.20;3.47;;;12.90;54.20;;;;;;10451716;28;20209;-78
2021/04/09 20:59:16;;;;;;;4.87;3.70;;;12.90;54.40;;;;;;10451702;28;20229;-77
2021/04/09 21:04:17;;;;;;;3.53;3.23;;;13.00;54.80;;;;;;10451970;28;20190;-78
2021/04/09 21:09:19;;;;;;;3.70;3.40;;;13.00;54.80;;;;;;10452586;28;20256;-78
2021/04/09 21:14:24;;;;;;;3.83;2.90;;;13.00;55.20;;;;;;10448457;28;20528;-78
2021/04/09 21:19:26;;;;;;;4.03;3.17;;;13.00;55.00;;;;;;10451608;28;20632;-78
2021/04/09 21:24:27;;;;;;;5.80;2.97;;;13.00;53.00;;;;;;10453040;28;20189;-78
2021/04/09 21:29:30;;;;;;;4.30;3.03;;;13.10;54.00;;;;;;10459010;28;20202;-77
2021/04/09 21:34:32;;;;;;;3.30;3.00;;;13.10;54.10;;;;;;10457693;28;20218;-79
2021/04/09 21:39:33;;;;;;;3.57;3.27;;;13.10;53.80;;;;;;10481555;28;20224;-77
2021/04/09 21:44:36;;;;;;;3.53;3.03;;;13.20;54.40;;;;;;10496530;28;20688;-77
2021/04/09 21:49:38;;;;;;;4.33;4.03;;;13.20;53.70;;;;;;10492782;28;20244;-78
2021/04/09 21:54:43;;;;;;;6.43;3.30;;;13.30;54.00;;;;;;10493449;28;20200;-78
2021/04/09 21:59:46;;;;;;;4.93;3.70;;;13.20;54.10;;;;;;10499110;28;20779;-78
2021/04/09 22:04:48;;;;;;;3.97;3.60;;;13.20;54.60;;;;;;10500914;28;20206;-77
2021/04/09 22:09:50;;;;;;;5.73;4.57;;;13.20;55.10;;;;;;10501979;28;20291;-78
2021/04/09 22:14:52;;;;;;;4.70;4.20;;;13.20;55.30;;;;;;10500026;28;20195;-78
2021/04/09 22:19:54;;;;;;;8.90;3.80;;;13.10;55.80;;;;;;10498495;28;20307;-78
2021/04/09 22:24:55;;;;;;;5.13;3.80;;;13.10;56.20;;;;;;10500696;28;20329;-78
2021/04/09 22:29:58;;;;;;;4.20;3.23;;;13.00;56.40;;;;;;10501566;28;20216;-78
2021/04/09 22:34:59;;;;;;;3.80;2.47;;;13.00;55.60;;;;;;10483742;28;20560;-77
2021/04/09 22:40:01;;;;;;;3.70;2.53;;;13.00;56.00;;;;;;10502006;28;20242;-78
2021/04/09 22:45:06;;;;;;;2.83;2.50;;;13.00;55.80;;;;;;10500210;28;20191;-78
2021/04/09 22:50:09;;;;;;;2.80;2.60;;;13.00;56.10;;;;;;10530407;28;20651;-77
2021/04/09 22:55:13;;;;;;;6.37;3.30;;;13.10;56.10;;;;;;10523437;28;20205;-77
2021/04/09 23:00:18;;;;;;;3.40;3.10;;;13.10;55.80;;;;;;10524486;28;20228;-78
2021/04/09 23:05:19;;;;;;;4.13;2.80;;;13.10;55.40;;;;;;10523760;28;20251;-78
2021/04/09 23:10:21;;;;;;;2.53;2.33;;;13.10;55.20;;;;;;10540749;28;20291;-78
2021/04/09 23:15:24;;;;;;;3.27;2.87;;;13.10;56.20;;;;;;10523062;28;20192;-78
2021/04/09 23:20:25;;;;;;;2.73;2.50;;;13.10;54.80;;;;;;10542871;28;20279;-78
2021/04/09 23:25:28;;;;;;;3.80;3.50;;;13.10;54.90;;;;;;10539622;28;20267;-78
2021/04/09 23:30:30;;;;;;;5.27;2.80;;;13.10;55.00;;;;;;10522234;28;20212;-77
2021/04/09 23:35:32;;;;;;;3.60;2.40;;;13.10;55.00;;;;;;10534739;28;20234;-78
2021/04/09 23:40:33;;;;;;;3.57;2.50;;;13.10;54.50;;;;;;10521687;28;20306;-77
2021/04/09 23:45:36;;;;;;;2.53;2.33;;;13.10;53.60;;;;;;10539844;28;20611;-78
2021/04/09 23:50:38;;;;;;;3.97;2.60;;;13.00;54.50;;;;;;10539093;28;20219;-78
2021/04/09 23:55:39;;;;;;;3.47;3.17;;;13.00;55.20;;;;;;10543185;28;20195;-77
